sensor_id;sensor_type;location;lat;lon;timestamp;P1;durP1;ratioP1;P2;durP2;ratioP2
76433;SDS011;65265;53.200;6.080;2023-04-23T00:04:25;19.08;;;9.25;;
76433;SDS011;65265;53.200;6.080;2023-04-23T00:14:13;23.90;;;12.02;;
76433;SDS011;65265;53.200;6.080;2023-04-23T00:19:05;26.55;;;13.73;;
76433;SDS011;65265;53.200;6.080;2023-04-23T00:23:56;22.80;;;12.88;;
76433;SDS011;65265;53.200;6.080;2023-04-23T00:28:49;27.30;;;13.35;;
76433;SDS011;65265;53.200;6.080;2023-04-23T00:33:41;29.73;;;14.45;;
76433;SDS011;65265;53.200;6.080;2023-04-23T00:38:32;22.67;;;12.02;;
76433;SDS011;65265;53.200;6.080;2023-04-23T00:43:24;26.33;;;12.80;;
76433;SDS011;65265;53.200;6.080;2023-04-23T00:48:17;30.55;;;16.98;;
76433;SDS011;65265;53.200;6.080;2023-04-23T00:53:09;36.78;;;18.25;;
76433;SDS011;65265;53.200;6.080;2023-04-23T00:58:00;40.28;;;18.73;;
76433;SDS011;65265;53.200;6.080;2023-04-23T01:02:52;38.10;;;18.55;;
76433;SDS011;65265;53.200;6.080;2023-04-23T01:07:45;38.90;;;17.30;;
76433;SDS011;65265;53.200;6.080;2023-04-23T01:12:37;35.08;;;16.88;;
76433;SDS011;65265;53.200;6.080;2023-04-23T01:17:29;42.53;;;20.65;;
76433;SDS011;65265;53.200;6.080;2023-04-23T01:22:22;32.70;;;17.35;;
76433;SDS011;65265;53.200;6.080;2023-04-23T01:27:14;40.17;;;19.17;;
76433;SDS011;65265;53.200;6.080;2023-04-23T01:32:08;42.88;;;18.58;;
76433;SDS011;65265;53.200;6.080;2023-04-23T01:37:00;46.72;;;19.83;;
76433;SDS011;65265;53.200;6.080;2023-04-23T01:41:55;34.78;;;17.58;;
76433;SDS011;65265;53.200;6.080;2023-04-23T01:46:47;48.25;;;20.85;;
76433;SDS011;65265;53.200;6.080;2023-04-23T01:51:38;41.15;;;21.17;;
76433;SDS011;65265;53.200;6.080;2023-04-23T01:56:30;42.72;;;19.75;;
76433;SDS011;65265;53.200;6.080;2023-04-23T02:01:25;42.55;;;21.00;;
76433;SDS011;65265;53.200;6.080;2023-04-23T02:06:30;38.97;;;18.80;;
76433;SDS011;65265;53.200;6.080;2023-04-23T02:11:22;42.63;;;19.00;;
76433;SDS011;65265;53.200;6.080;2023-04-23T02:16:13;43.90;;;22.63;;
76433;SDS011;65265;53.200;6.080;2023-04-23T02:21:06;42.17;;;19.55;;
76433;SDS011;65265;53.200;6.080;2023-04-23T02:30:49;43.60;;;20.67;;
76433;SDS011;65265;53.200;6.080;2023-04-23T02:35:41;67.20;;;25.67;;
76433;SDS011;65265;53.200;6.080;2023-04-23T02:40:33;64.22;;;26.38;;
76433;SDS011;65265;53.200;6.080;2023-04-23T02:45:25;65.70;;;27.38;;
76433;SDS011;65265;53.200;6.080;2023-04-23T02:50:16;69.30;;;28.60;;
76433;SDS011;65265;53.200;6.080;2023-04-23T02:55:08;75.40;;;33.58;;
76433;SDS011;65265;53.200;6.080;2023-04-23T03:00:01;80.28;;;29.20;;
76433;SDS011;65265;53.200;6.080;2023-04-23T03:04:56;71.72;;;31.15;;
76433;SDS011;65265;53.200;6.080;2023-04-23T03:09:47;74.57;;;30.08;;
76433;SDS011;65265;53.200;6.080;2023-04-23T03:14:39;87.47;;;32.17;;
76433;SDS011;65265;53.200;6.080;2023-04-23T03:19:32;82.38;;;34.03;;
76433;SDS011;65265;53.200;6.080;2023-04-23T03:24:23;85.75;;;33.63;;
76433;SDS011;65265;53.200;6.080;2023-04-23T03:29:15;83.50;;;32.75;;
76433;SDS011;65265;53.200;6.080;2023-04-23T03:34:06;85.05;;;31.95;;
76433;SDS011;65265;53.200;6.080;2023-04-23T03:38:59;85.50;;;35.70;;
76433;SDS011;65265;53.200;6.080;2023-04-23T03:43:51;87.05;;;36.05;;
76433;SDS011;65265;53.200;6.080;2023-04-23T03:48:43;82.03;;;33.75;;
76433;SDS011;65265;53.200;6.080;2023-04-23T03:53:34;90.05;;;34.00;;
76433;SDS011;65265;53.200;6.080;2023-04-23T03:58:27;82.32;;;34.85;;
76433;SDS011;65265;53.200;6.080;2023-04-23T04:03:19;89.97;;;36.47;;
76433;SDS011;65265;53.200;6.080;2023-04-23T04:08:10;93.22;;;39.45;;
76433;SDS011;65265;53.200;6.080;2023-04-23T04:13:02;95.05;;;36.28;;
76433;SDS011;65265;53.200;6.080;2023-04-23T04:17:55;93.53;;;35.65;;
76433;SDS011;65265;53.200;6.080;2023-04-23T04:22:46;91.25;;;40.75;;
76433;SDS011;65265;53.200;6.080;2023-04-23T04:27:38;96.38;;;35.47;;
76433;SDS011;65265;53.200;6.080;2023-04-23T04:32:30;91.05;;;34.95;;
76433;SDS011;65265;53.200;6.080;2023-04-23T04:37:23;91.40;;;39.20;;
76433;SDS011;65265;53.200;6.080;2023-04-23T04:42:15;88.75;;;35.35;;
76433;SDS011;65265;53.200;6.080;2023-04-23T04:47:06;83.72;;;34.95;;
76433;SDS011;65265;53.200;6.080;2023-04-23T04:51:58;80.63;;;33.17;;
76433;SDS011;65265;53.200;6.080;2023-04-23T04:56:51;81.53;;;32.92;;
76433;SDS011;65265;53.200;6.080;2023-04-23T05:01:43;91.10;;;37.20;;
76433;SDS011;65265;53.200;6.080;2023-04-23T05:06:35;80.93;;;33.72;;
76433;SDS011;65265;53.200;6.080;2023-04-23T05:11:26;93.38;;;35.50;;
76433;SDS011;65265;53.200;6.080;2023-04-23T05:16:20;90.57;;;35.55;;
76433;SDS011;65265;53.200;6.080;2023-04-23T05:21:11;83.85;;;34.97;;
76433;SDS011;65265;53.200;6.080;2023-04-23T05:26:02;85.00;;;35.90;;
76433;SDS011;65265;53.200;6.080;2023-04-23T05:30:55;88.47;;;35.33;;
76433;SDS011;65265;53.200;6.080;2023-04-23T05:35:47;76.63;;;34.50;;
76433;SDS011;65265;53.200;6.080;2023-04-23T05:40:39;81.50;;;33.05;;
76433;SDS011;65265;53.200;6.080;2023-04-23T05:45:30;74.65;;;33.30;;
76433;SDS011;65265;53.200;6.080;2023-04-23T05:50:22;72.68;;;33.80;;
76433;SDS011;65265;53.200;6.080;2023-04-23T05:55:15;73.78;;;31.52;;
76433;SDS011;65265;53.200;6.080;2023-04-23T06:00:07;71.60;;;31.30;;
76433;SDS011;65265;53.200;6.080;2023-04-23T06:05:00;69.85;;;28.50;;
76433;SDS011;65265;53.200;6.080;2023-04-23T06:09:52;55.88;;;27.70;;
76433;SDS011;65265;53.200;6.080;2023-04-23T06:14:44;57.17;;;27.67;;
76433;SDS011;65265;53.200;6.080;2023-04-23T06:24:27;61.63;;;26.80;;
76433;SDS011;65265;53.200;6.080;2023-04-23T06:29:19;57.22;;;26.30;;
76433;SDS011;65265;53.200;6.080;2023-04-23T06:34:12;52.40;;;25.17;;
76433;SDS011;65265;53.200;6.080;2023-04-23T06:39:03;56.33;;;27.27;;
76433;SDS011;65265;53.200;6.080;2023-04-23T06:43:55;56.15;;;27.25;;
76433;SDS011;65265;53.200;6.080;2023-04-23T06:48:46;54.03;;;27.70;;
76433;SDS011;65265;53.200;6.080;2023-04-23T06:53:39;49.42;;;24.02;;
76433;SDS011;65265;53.200;6.080;2023-04-23T06:58:31;57.75;;;27.27;;
76433;SDS011;65265;53.200;6.080;2023-04-23T07:03:22;51.90;;;26.25;;
76433;SDS011;65265;53.200;6.080;2023-04-23T07:08:14;50.45;;;26.52;;
76433;SDS011;65265;53.200;6.080;2023-04-23T07:13:07;48.95;;;25.10;;
76433;SDS011;65265;53.200;6.080;2023-04-23T07:27:41;47.08;;;26.33;;
76433;SDS011;65265;53.200;6.080;2023-04-23T07:32:34;46.03;;;24.55;;
76433;SDS011;65265;53.200;6.080;2023-04-23T07:37:26;44.30;;;23.33;;
76433;SDS011;65265;53.200;6.080;2023-04-23T07:42:17;42.70;;;22.08;;
76433;SDS011;65265;53.200;6.080;2023-04-23T07:47:09;46.55;;;23.67;;
76433;SDS011;65265;53.200;6.080;2023-04-23T07:52:02;42.53;;;22.50;;
76433;SDS011;65265;53.200;6.080;2023-04-23T07:56:54;43.53;;;21.77;;
76433;SDS011;65265;53.200;6.080;2023-04-23T08:01:46;37.90;;;20.52;;
76433;SDS011;65265;53.200;6.080;2023-04-23T08:06:37;40.80;;;23.02;;
76433;SDS011;65265;53.200;6.080;2023-04-23T08:11:30;34.90;;;19.38;;
76433;SDS011;65265;53.200;6.080;2023-04-23T08:16:21;35.08;;;17.92;;
76433;SDS011;65265;53.200;6.080;2023-04-23T08:21:13;32.47;;;17.98;;
76433;SDS011;65265;53.200;6.080;2023-04-23T08:26:04;33.00;;;18.90;;
76433;SDS011;65265;53.200;6.080;2023-04-23T08:30:57;28.73;;;15.50;;
76433;SDS011;65265;53.200;6.080;2023-04-23T08:35:49;33.17;;;16.67;;
76433;SDS011;65265;53.200;6.080;2023-04-23T08:40:41;30.05;;;17.67;;
76433;SDS011;65265;53.200;6.080;2023-04-23T08:45:32;28.48;;;15.10;;
76433;SDS011;65265;53.200;6.080;2023-04-23T08:50:32;30.00;;;15.68;;
76433;SDS011;65265;53.200;6.080;2023-04-23T08:55:23;27.05;;;14.60;;
76433;SDS011;65265;53.200;6.080;2023-04-23T09:00:16;24.05;;;14.20;;
76433;SDS011;65265;53.200;6.080;2023-04-23T09:05:09;23.90;;;13.50;;
76433;SDS011;65265;53.200;6.080;2023-04-23T09:10:02;19.67;;;11.98;;
76433;SDS011;65265;53.200;6.080;2023-04-23T09:14:55;19.52;;;11.63;;
76433;SDS011;65265;53.200;6.080;2023-04-23T09:19:47;19.90;;;11.63;;
76433;SDS011;65265;53.200;6.080;2023-04-23T09:24:40;18.38;;;10.63;;
76433;SDS011;65265;53.200;6.080;2023-04-23T09:29:33;14.45;;;8.95;;
76433;SDS011;65265;53.200;6.080;2023-04-23T09:34:25;12.68;;;7.35;;
76433;SDS011;65265;53.200;6.080;2023-04-23T09:39:17;12.52;;;6.88;;
76433;SDS011;65265;53.200;6.080;2023-04-23T09:44:10;10.65;;;6.50;;
76433;SDS011;65265;53.200;6.080;2023-04-23T09:49:04;10.52;;;6.25;;
76433;SDS011;65265;53.200;6.080;2023-04-23T09:53:58;10.05;;;4.75;;
76433;SDS011;65265;53.200;6.080;2023-04-23T09:58:51;11.48;;;7.78;;
76433;SDS011;65265;53.200;6.080;2023-04-23T10:03:43;10.07;;;5.82;;
76433;SDS011;65265;53.200;6.080;2023-04-23T10:08:36;11.85;;;4.88;;
76433;SDS011;65265;53.200;6.080;2023-04-23T10:13:28;10.27;;;4.32;;
76433;SDS011;65265;53.200;6.080;2023-04-23T10:18:20;9.13;;;4.88;;
76433;SDS011;65265;53.200;6.080;2023-04-23T10:23:12;8.10;;;3.28;;
76433;SDS011;65265;53.200;6.080;2023-04-23T10:28:05;7.45;;;3.30;;
76433;SDS011;65265;53.200;6.080;2023-04-23T10:33:00;5.47;;;2.90;;
76433;SDS011;65265;53.200;6.080;2023-04-23T10:37:55;8.77;;;3.30;;
76433;SDS011;65265;53.200;6.080;2023-04-23T10:42:46;6.50;;;2.90;;
76433;SDS011;65265;53.200;6.080;2023-04-23T10:47:42;8.23;;;3.25;;
76433;SDS011;65265;53.200;6.080;2023-04-23T10:52:34;7.75;;;3.20;;
76433;SDS011;65265;53.200;6.080;2023-04-23T10:57:25;6.28;;;2.33;;
76433;SDS011;65265;53.200;6.080;2023-04-23T11:02:17;7.78;;;4.55;;
76433;SDS011;65265;53.200;6.080;2023-04-23T11:07:10;6.82;;;3.30;;
76433;SDS011;65265;53.200;6.080;2023-04-23T11:12:04;5.57;;;1.65;;
76433;SDS011;65265;53.200;6.080;2023-04-23T11:16:57;4.28;;;2.03;;
76433;SDS011;65265;53.200;6.080;2023-04-23T11:21:55;10.52;;;2.53;;
76433;SDS011;65265;53.200;6.080;2023-04-23T11:26:51;6.05;;;2.10;;
76433;SDS011;65265;53.200;6.080;2023-04-23T11:31:43;7.82;;;3.00;;
76433;SDS011;65265;53.200;6.080;2023-04-23T11:36:35;4.57;;;2.42;;
76433;SDS011;65265;53.200;6.080;2023-04-23T11:41:26;4.10;;;1.60;;
76433;SDS011;65265;53.200;6.080;2023-04-23T11:46:20;4.43;;;2.03;;
76433;SDS011;65265;53.200;6.080;2023-04-23T11:51:11;3.53;;;1.52;;
76433;SDS011;65265;53.200;6.080;2023-04-23T11:56:03;5.20;;;1.38;;
76433;SDS011;65265;53.200;6.080;2023-04-23T12:00:56;5.95;;;1.10;;
76433;SDS011;65265;53.200;6.080;2023-04-23T12:05:49;4.20;;;0.75;;
76433;SDS011;65265;53.200;6.080;2023-04-23T12:10:41;4.75;;;1.35;;
76433;SDS011;65265;53.200;6.080;2023-04-23T12:15:42;4.05;;;0.70;;
76433;SDS011;65265;53.200;6.080;2023-04-23T12:20:34;2.42;;;1.00;;
76433;SDS011;65265;53.200;6.080;2023-04-23T12:25:27;4.38;;;0.45;;
76433;SDS011;65265;53.200;6.080;2023-04-23T12:30:19;3.58;;;1.40;;
76433;SDS011;65265;53.200;6.080;2023-04-23T12:35:10;4.72;;;0.82;;
76433;SDS011;65265;53.200;6.080;2023-04-23T12:40:03;3.17;;;0.68;;
76433;SDS011;65265;53.200;6.080;2023-04-23T12:45:04;4.25;;;0.60;;
76433;SDS011;65265;53.200;6.080;2023-04-23T12:49:57;5.00;;;0.45;;
76433;SDS011;65265;53.200;6.080;2023-04-23T12:54:50;7.65;;;0.75;;
76433;SDS011;65265;53.200;6.080;2023-04-23T12:59:45;8.00;;;1.85;;
76433;SDS011;65265;53.200;6.080;2023-04-23T13:04:38;4.90;;;0.75;;
76433;SDS011;65265;53.200;6.080;2023-04-23T13:09:29;3.83;;;0.60;;
76433;SDS011;65265;53.200;6.080;2023-04-23T13:14:21;4.07;;;1.13;;
76433;SDS011;65265;53.200;6.080;2023-04-23T13:19:12;2.67;;;0.40;;
76433;SDS011;65265;53.200;6.080;2023-04-23T13:24:07;4.57;;;0.43;;
76433;SDS011;65265;53.200;6.080;2023-04-23T13:28:58;3.22;;;0.73;;
76433;SDS011;65265;53.200;6.080;2023-04-23T13:33:50;4.13;;;0.50;;
76433;SDS011;65265;53.200;6.080;2023-04-23T13:38:42;2.90;;;0.50;;
76433;SDS011;65265;53.200;6.080;2023-04-23T13:43:35;3.80;;;0.90;;
76433;SDS011;65265;53.200;6.080;2023-04-23T13:48:26;5.05;;;0.63;;
76433;SDS011;65265;53.200;6.080;2023-04-23T13:53:20;5.22;;;0.50;;
76433;SDS011;65265;53.200;6.080;2023-04-23T13:58:11;3.85;;;0.88;;
76433;SDS011;65265;53.200;6.080;2023-04-23T14:03:04;2.47;;;0.25;;
76433;SDS011;65265;53.200;6.080;2023-04-23T14:07:55;2.88;;;0.43;;
76433;SDS011;65265;53.200;6.080;2023-04-23T14:12:47;4.28;;;0.55;;
76433;SDS011;65265;53.200;6.080;2023-04-23T14:17:39;1.98;;;0.20;;
76433;SDS011;65265;53.200;6.080;2023-04-23T14:22:33;6.60;;;2.00;;
76433;SDS011;65265;53.200;6.080;2023-04-23T14:27:25;4.75;;;0.20;;
76433;SDS011;65265;53.200;6.080;2023-04-23T14:32:16;3.45;;;0.35;;
76433;SDS011;65265;53.200;6.080;2023-04-23T14:37:08;3.97;;;0.90;;
76433;SDS011;65265;53.200;6.080;2023-04-23T14:42:01;3.70;;;0.25;;
76433;SDS011;65265;53.200;6.080;2023-04-23T14:46:53;4.22;;;0.55;;
76433;SDS011;65265;53.200;6.080;2023-04-23T14:51:45;5.55;;;0.57;;
76433;SDS011;65265;53.200;6.080;2023-04-23T14:56:36;5.35;;;0.60;;
76433;SDS011;65265;53.200;6.080;2023-04-23T15:01:29;3.92;;;0.47;;
76433;SDS011;65265;53.200;6.080;2023-04-23T15:06:21;4.30;;;0.88;;
76433;SDS011;65265;53.200;6.080;2023-04-23T15:11:12;2.00;;;0.52;;
76433;SDS011;65265;53.200;6.080;2023-04-23T15:16:06;6.00;;;0.77;;
76433;SDS011;65265;53.200;6.080;2023-04-23T15:21:09;1.95;;;0.20;;
76433;SDS011;65265;53.200;6.080;2023-04-23T15:26:00;4.13;;;0.40;;
76433;SDS011;65265;53.200;6.080;2023-04-23T15:30:52;3.58;;;0.60;;
76433;SDS011;65265;53.200;6.080;2023-04-23T15:35:43;2.97;;;0.70;;
76433;SDS011;65265;53.200;6.080;2023-04-23T15:40:36;3.85;;;0.75;;
76433;SDS011;65265;53.200;6.080;2023-04-23T15:45:31;2.30;;;1.23;;
76433;SDS011;65265;53.200;6.080;2023-04-23T15:50:22;1.13;;;0.30;;
76433;SDS011;65265;53.200;6.080;2023-04-23T15:55:16;3.30;;;0.80;;
76433;SDS011;65265;53.200;6.080;2023-04-23T16:00:09;0.90;;;0.47;;
76433;SDS011;65265;53.200;6.080;2023-04-23T16:05:01;2.22;;;0.20;;
76433;SDS011;65265;53.200;6.080;2023-04-23T16:09:53;5.88;;;0.38;;
76433;SDS011;65265;53.200;6.080;2023-04-23T16:14:45;1.95;;;0.15;;
76433;SDS011;65265;53.200;6.080;2023-04-23T16:19:38;4.45;;;0.20;;
76433;SDS011;65265;53.200;6.080;2023-04-23T16:24:29;4.72;;;0.55;;
76433;SDS011;65265;53.200;6.080;2023-04-23T16:29:21;3.53;;;0.50;;
76433;SDS011;65265;53.200;6.080;2023-04-23T16:34:12;2.70;;;0.43;;
76433;SDS011;65265;53.200;6.080;2023-04-23T16:39:05;2.08;;;0.30;;
76433;SDS011;65265;53.200;6.080;2023-04-23T16:43:56;0.85;;;0.00;;
76433;SDS011;65265;53.200;6.080;2023-04-23T16:48:48;0.82;;;0.10;;
76433;SDS011;65265;53.200;6.080;2023-04-23T16:53:39;1.23;;;0.10;;
76433;SDS011;65265;53.200;6.080;2023-04-23T16:58:32;1.05;;;0.40;;
76433;SDS011;65265;53.200;6.080;2023-04-23T17:03:25;3.00;;;0.70;;
76433;SDS011;65265;53.200;6.080;2023-04-23T17:08:16;4.00;;;1.13;;
76433;SDS011;65265;53.200;6.080;2023-04-23T17:13:08;5.95;;;2.25;;
76433;SDS011;65265;53.200;6.080;2023-04-23T17:18:00;3.78;;;1.70;;
76433;SDS011;65265;53.200;6.080;2023-04-23T17:22:52;3.80;;;0.93;;
76433;SDS011;65265;53.200;6.080;2023-04-23T17:27:44;3.65;;;0.88;;
76433;SDS011;65265;53.200;6.080;2023-04-23T17:32:36;1.25;;;0.63;;
76433;SDS011;65265;53.200;6.080;2023-04-23T17:37:29;3.65;;;0.73;;
76433;SDS011;65265;53.200;6.080;2023-04-23T17:42:20;3.15;;;0.90;;
76433;SDS011;65265;53.200;6.080;2023-04-23T17:47:12;2.08;;;0.63;;
76433;SDS011;65265;53.200;6.080;2023-04-23T17:52:03;1.65;;;0.70;;
76433;SDS011;65265;53.200;6.080;2023-04-23T17:56:57;2.13;;;0.40;;
76433;SDS011;65265;53.200;6.080;2023-04-23T18:01:48;2.00;;;0.43;;
76433;SDS011;65265;53.200;6.080;2023-04-23T18:06:40;1.17;;;0.35;;
76433;SDS011;65265;53.200;6.080;2023-04-23T18:11:31;2.63;;;0.55;;
76433;SDS011;65265;53.200;6.080;2023-04-23T18:16:24;0.70;;;0.30;;
76433;SDS011;65265;53.200;6.080;2023-04-23T18:21:16;1.95;;;0.43;;
76433;SDS011;65265;53.200;6.080;2023-04-23T18:26:07;1.30;;;0.60;;
76433;SDS011;65265;53.200;6.080;2023-04-23T18:30:59;2.70;;;0.52;;
76433;SDS011;65265;53.200;6.080;2023-04-23T18:35:53;2.40;;;0.70;;
76433;SDS011;65265;53.200;6.080;2023-04-23T18:40:48;1.48;;;0.75;;
76433;SDS011;65265;53.200;6.080;2023-04-23T18:45:39;2.40;;;1.15;;
76433;SDS011;65265;53.200;6.080;2023-04-23T18:50:42;1.55;;;1.05;;
76433;SDS011;65265;53.200;6.080;2023-04-23T18:55:40;2.92;;;1.20;;
76433;SDS011;65265;53.200;6.080;2023-04-23T19:05:23;3.88;;;1.02;;
76433;SDS011;65265;53.200;6.080;2023-04-23T19:10:14;2.50;;;1.10;;
76433;SDS011;65265;53.200;6.080;2023-04-23T19:15:09;9.73;;;6.10;;
76433;SDS011;65265;53.200;6.080;2023-04-23T19:20:03;6.35;;;4.05;;
76433;SDS011;65265;53.200;6.080;2023-04-23T19:24:55;7.25;;;2.40;;
76433;SDS011;65265;53.200;6.080;2023-04-23T19:29:46;7.05;;;2.85;;
76433;SDS011;65265;53.200;6.080;2023-04-23T19:34:39;3.25;;;1.73;;
76433;SDS011;65265;53.200;6.080;2023-04-23T19:54:06;6.18;;;3.20;;
76433;SDS011;65265;53.200;6.080;2023-04-23T19:58:58;6.80;;;3.83;;
76433;SDS011;65265;53.200;6.080;2023-04-23T20:03:49;7.30;;;5.70;;
76433;SDS011;65265;53.200;6.080;2023-04-23T20:13:55;9.20;;;3.83;;
76433;SDS011;65265;53.200;6.080;2023-04-23T20:18:47;7.18;;;2.97;;
76433;SDS011;65265;53.200;6.080;2023-04-23T20:23:39;8.60;;;2.95;;
76433;SDS011;65265;53.200;6.080;2023-04-23T20:28:30;6.30;;;3.45;;
76433;SDS011;65265;53.200;6.080;2023-04-23T20:33:23;6.75;;;3.45;;
76433;SDS011;65265;53.200;6.080;2023-04-23T20:38:15;5.82;;;3.08;;
76433;SDS011;65265;53.200;6.080;2023-04-23T20:43:08;5.63;;;3.30;;
76433;SDS011;65265;53.200;6.080;2023-04-23T20:47:59;5.53;;;3.10;;
76433;SDS011;65265;53.200;6.080;2023-04-23T20:52:52;5.22;;;2.78;;
76433;SDS011;65265;53.200;6.080;2023-04-23T20:57:44;5.60;;;3.40;;
76433;SDS011;65265;53.200;6.080;2023-04-23T21:02:35;4.45;;;2.97;;
76433;SDS011;65265;53.200;6.080;2023-04-23T21:07:27;5.50;;;4.65;;
76433;SDS011;65265;53.200;6.080;2023-04-23T21:12:20;6.00;;;3.03;;
76433;SDS011;65265;53.200;6.080;2023-04-23T21:17:11;5.57;;;2.10;;
76433;SDS011;65265;53.200;6.080;2023-04-23T21:22:03;7.22;;;4.07;;
76433;SDS011;65265;53.200;6.080;2023-04-23T21:26:54;5.95;;;3.65;;
76433;SDS011;65265;53.200;6.080;2023-04-23T21:31:49;8.20;;;3.55;;
76433;SDS011;65265;53.200;6.080;2023-04-23T21:36:42;6.15;;;3.35;;
76433;SDS011;65265;53.200;6.080;2023-04-23T21:41:34;6.07;;;2.70;;
76433;SDS011;65265;53.200;6.080;2023-04-23T21:46:26;7.32;;;3.63;;
76433;SDS011;65265;53.200;6.080;2023-04-23T21:51:20;5.68;;;2.47;;
76433;SDS011;65265;53.200;6.080;2023-04-23T21:56:14;7.97;;;4.43;;
76433;SDS011;65265;53.200;6.080;2023-04-23T22:01:05;6.80;;;2.65;;
76433;SDS011;65265;53.200;6.080;2023-04-23T22:05:57;6.25;;;2.97;;
76433;SDS011;65265;53.200;6.080;2023-04-23T22:10:52;6.25;;;3.00;;
76433;SDS011;65265;53.200;6.080;2023-04-23T22:15:44;4.93;;;3.00;;
76433;SDS011;65265;53.200;6.080;2023-04-23T22:20:37;6.65;;;3.10;;
76433;SDS011;65265;53.200;6.080;2023-04-23T22:25:28;7.40;;;2.88;;
76433;SDS011;65265;53.200;6.080;2023-04-23T22:30:21;6.32;;;3.53;;
76433;SDS011;65265;53.200;6.080;2023-04-23T22:35:13;5.45;;;3.13;;
76433;SDS011;65265;53.200;6.080;2023-04-23T22:40:05;8.43;;;4.13;;
76433;SDS011;65265;53.200;6.080;2023-04-23T22:44:58;8.57;;;3.47;;
76433;SDS011;65265;53.200;6.080;2023-04-23T22:49:52;6.90;;;2.90;;
76433;SDS011;65265;53.200;6.080;2023-04-23T22:54:44;4.55;;;3.05;;
76433;SDS011;65265;53.200;6.080;2023-04-23T22:59:36;8.15;;;3.92;;
76433;SDS011;65265;53.200;6.080;2023-04-23T23:04:28;7.90;;;2.90;;
76433;SDS011;65265;53.200;6.080;2023-04-23T23:09:21;7.68;;;5.63;;
76433;SDS011;65265;53.200;6.080;2023-04-23T23:14:12;6.97;;;4.30;;
76433;SDS011;65265;53.200;6.080;2023-04-23T23:19:04;5.20;;;3.25;;
76433;SDS011;65265;53.200;6.080;2023-04-23T23:23:57;4.68;;;2.90;;
76433;SDS011;65265;53.200;6.080;2023-04-23T23:28:50;5.47;;;3.45;;
76433;SDS011;65265;53.200;6.080;2023-04-23T23:33:41;6.82;;;4.45;;
76433;SDS011;65265;53.200;6.080;2023-04-23T23:38:33;5.68;;;3.42;;
76433;SDS011;65265;53.200;6.080;2023-04-23T23:43:24;7.20;;;4.20;;
76433;SDS011;65265;53.200;6.080;2023-04-23T23:48:17;6.40;;;3.67;;
76433;SDS011;65265;53.200;6.080;2023-04-23T23:53:09;6.53;;;3.83;;
76433;SDS011;65265;53.200;6.080;2023-04-23T23:58:00;4.63;;;2.97;;
